createdAt,value
2023-11-25T00:02:13.055Z,86.18
2023-11-25T00:04:41.106Z,86.57
2023-11-25T00:07:09.119Z,86.24
2023-11-25T00:09:37.026Z,86.73
2023-11-25T00:12:05.111Z,87.43
2023-11-25T00:14:33.161Z,87.50
2023-11-25T00:17:01.145Z,87.90
2023-11-25T00:19:29.281Z,88.38
2023-11-25T00:21:57.672Z,89.26
2023-11-25T00:24:25.583Z,89.30
2023-11-25T00:26:53.547Z,89.58
2023-11-25T00:29:21.597Z,89.86
2023-11-25T00:31:51.586Z,90.40
2023-11-25T00:34:19.569Z,91.22
2023-11-25T00:36:48.170Z,91.88
2023-11-25T00:39:17.623Z,92.70
2023-11-25T00:41:45.678Z,93.86
2023-11-25T00:44:13.990Z,94.63
2023-11-25T00:46:42.089Z,94.01
2023-11-25T00:49:11.170Z,94.07
2023-11-25T00:51:42.384Z,93.92
2023-11-25T00:54:10.807Z,93.46
2023-11-25T00:56:38.733Z,93.26
2023-11-25T00:59:06.677Z,93.30
2023-11-25T01:01:36.686Z,93.65
2023-11-25T01:04:06.124Z,93.71
2023-11-25T01:06:34.076Z,93.49
2023-11-25T01:09:02.152Z,93.95
2023-11-25T01:11:30.101Z,93.63
2023-11-25T01:13:58.016Z,93.91
2023-11-25T01:16:27.396Z,94.13
2023-11-25T01:18:55.565Z,94.22
2023-11-25T01:21:23.496Z,94.88
2023-11-25T01:23:51.436Z,94.77
2023-11-25T01:26:19.985Z,95.67
2023-11-25T01:28:48.142Z,96.03
2023-11-25T01:31:16.867Z,96.28
2023-11-25T01:33:44.869Z,96.89
2023-11-25T01:36:13.970Z,97.18
2023-11-25T01:38:42.314Z,97.12
2023-11-25T01:41:10.325Z,96.26
2023-11-25T01:43:39.579Z,96.26
2023-11-25T01:46:09.432Z,96.24
2023-11-25T01:48:37.686Z,96.87
2023-11-25T01:51:08.220Z,96.57
2023-11-25T01:53:36.617Z,96.89
2023-11-25T01:56:04.882Z,96.87
2023-11-25T01:58:34.818Z,96.48
2023-11-25T02:01:02.991Z,96.31
2023-11-25T02:03:30.905Z,96.24
2023-11-25T02:05:58.850Z,96.13
2023-11-25T02:08:26.920Z,95.55
2023-11-25T02:10:55.115Z,94.87
2023-11-25T02:13:27.318Z,94.35
2023-11-25T02:15:56.944Z,93.77
2023-11-25T02:18:25.206Z,92.67
2023-11-25T02:20:53.877Z,91.83
2023-11-25T02:23:25.152Z,91.31
2023-11-25T02:25:55.126Z,91.59
2023-11-25T02:28:23.450Z,90.39
2023-11-25T02:30:51.827Z,90.41
2023-11-25T02:33:19.865Z,90.87
2023-11-25T02:35:50.956Z,90.71
2023-11-25T02:38:18.942Z,90.39
2023-11-25T02:40:47.661Z,89.06
2023-11-25T02:43:15.732Z,89.71
2023-11-25T02:48:18.356Z,88.17
2023-11-25T02:50:46.587Z,88.24
2023-11-25T02:53:14.803Z,87.38
2023-11-25T02:55:42.788Z,87.03
2023-11-25T02:58:11.046Z,86.15
2023-11-25T03:00:39.336Z,86.64
2023-11-25T03:03:11.929Z,86.24
2023-11-25T03:05:39.866Z,86.07
2023-11-25T03:08:08.952Z,86.73
2023-11-25T03:10:37.851Z,87.36
2023-11-25T03:13:07.207Z,88.69
2023-11-25T03:15:35.150Z,89.81
2023-11-25T03:18:04.346Z,89.94
2023-11-25T03:20:32.415Z,89.71
2023-11-25T03:23:00.658Z,89.73
2023-11-25T03:25:30.308Z,89.94
2023-11-25T03:27:58.786Z,89.67
2023-11-25T03:30:28.835Z,89.56
2023-11-25T03:32:57.101Z,89.10
2023-11-25T03:35:25.763Z,89.18
2023-11-25T03:37:53.684Z,89.00
2023-11-25T03:40:21.650Z,88.91
2023-11-25T03:42:49.797Z,88.95
2023-11-25T03:45:18.321Z,88.85
2023-11-25T03:47:47.334Z,88.90
2023-11-25T03:50:15.525Z,89.11
2023-11-25T03:52:44.292Z,89.01
2023-11-25T03:55:12.497Z,89.27
2023-11-25T03:57:41.543Z,89.18
2023-11-25T04:00:17.060Z,89.10
2023-11-25T04:02:47.051Z,88.69
2023-11-25T04:05:16.120Z,89.16
2023-11-25T04:07:44.156Z,89.77
2023-11-25T04:10:17.771Z,89.58
2023-11-25T04:12:50.442Z,89.59
2023-11-25T04:15:23.899Z,89.68
2023-11-25T04:17:53.401Z,88.94
2023-11-25T04:20:27.426Z,89.09
2023-11-25T04:22:56.652Z,89.45
2023-11-25T04:25:25.200Z,89.68
2023-11-25T04:27:53.853Z,89.84
2023-11-25T04:30:21.939Z,90.03
2023-11-25T04:32:50.327Z,89.79
2023-11-25T04:35:18.796Z,89.44
2023-11-25T04:37:47.820Z,89.12
2023-11-25T04:40:16.683Z,88.66
2023-11-25T04:42:45.526Z,89.43
2023-11-25T04:45:22.544Z,89.54
2023-11-25T04:47:55.615Z,88.93
2023-11-25T04:50:23.616Z,89.42
2023-11-25T04:52:52.118Z,89.20
2023-11-25T04:55:24.311Z,88.67
2023-11-25T04:57:55.149Z,88.48
2023-11-25T05:00:24.252Z,88.99
2023-11-25T05:02:52.220Z,88.96
2023-11-25T05:05:20.142Z,88.78
2023-11-25T05:07:48.210Z,89.14
2023-11-25T05:10:17.381Z,89.08
2023-11-25T05:12:46.736Z,89.11
2023-11-25T05:15:14.723Z,89.36
2023-11-25T05:17:42.948Z,89.58
2023-11-25T05:20:18.263Z,89.66
2023-11-25T05:22:46.489Z,89.90
2023-11-25T05:25:18.033Z,89.84
2023-11-25T05:27:46.426Z,89.92
2023-11-25T05:30:15.809Z,88.79
2023-11-25T05:32:45.241Z,88.01
2023-11-25T05:35:15.688Z,88.85
2023-11-25T05:37:46.423Z,88.23
2023-11-25T05:40:17.093Z,87.96
2023-11-25T05:42:50.453Z,88.42
2023-11-25T05:45:20.076Z,87.66
2023-11-25T05:47:48.031Z,88.14
2023-11-25T05:50:22.738Z,88.56
2023-11-25T05:52:51.411Z,88.63
2023-11-25T05:55:22.206Z,88.95
2023-11-25T05:57:53.134Z,88.99
2023-11-25T06:00:22.437Z,89.27
2023-11-25T06:02:51.924Z,88.78
2023-11-25T06:05:20.303Z,88.71
2023-11-25T06:07:51.255Z,89.40
2023-11-25T06:10:21.397Z,89.38
2023-11-25T06:12:49.444Z,89.49
2023-11-25T06:15:18.232Z,89.59
2023-11-25T06:17:47.722Z,89.68
2023-11-25T06:20:15.829Z,89.54
2023-11-25T06:22:43.799Z,89.04
2023-11-25T06:25:11.860Z,89.07
2023-11-25T06:27:39.949Z,89.13
2023-11-25T06:30:08.525Z,88.48
2023-11-25T06:32:36.623Z,88.26
2023-11-25T06:35:04.849Z,86.92
2023-11-25T06:37:32.879Z,86.47
2023-11-25T06:40:00.811Z,87.52
2023-11-25T06:42:28.705Z,87.54
2023-11-25T06:44:56.653Z,87.64
2023-11-25T06:47:24.988Z,87.75
2023-11-25T06:49:55.860Z,88.14
2023-11-25T06:52:23.987Z,88.35
2023-11-25T06:54:51.901Z,88.10
2023-11-25T06:57:19.797Z,88.26
2023-11-25T06:59:47.888Z,88.39
2023-11-25T07:02:16.102Z,88.48
2023-11-25T07:04:44.274Z,87.73
2023-11-25T07:07:16.104Z,86.56
2023-11-25T07:09:44.201Z,86.63
2023-11-25T07:12:12.681Z,87.77
2023-11-25T07:14:40.653Z,87.35
2023-11-25T07:17:08.762Z,87.75
2023-11-25T07:19:36.780Z,87.84
2023-11-25T07:22:06.104Z,87.70
2023-11-25T07:24:35.241Z,86.57
2023-11-25T07:27:07.500Z,84.49
2023-11-25T07:29:35.934Z,83.22
2023-11-25T07:32:04.666Z,84.65
2023-11-25T07:34:33.973Z,86.85
2023-11-25T07:37:02.223Z,84.68
2023-11-25T07:39:31.884Z,80.08
2023-11-25T07:42:00.469Z,82.97
2023-11-25T07:44:29.731Z,84.79
2023-11-25T07:46:57.658Z,82.92
2023-11-25T07:49:25.897Z,82.34
2023-11-25T07:51:53.852Z,83.42
2023-11-25T07:54:21.839Z,81.25
2023-11-25T07:56:52.532Z,80.17
2023-11-25T07:59:20.538Z,79.55
2023-11-25T08:01:48.650Z,79.47
2023-11-25T08:04:16.819Z,81.02
2023-11-25T08:06:44.896Z,80.90
2023-11-25T08:09:12.908Z,78.92
2023-11-25T08:11:41.307Z,76.68
2023-11-25T08:14:09.224Z,78.04
2023-11-25T08:16:37.406Z,76.48
2023-11-25T08:19:06.473Z,76.70
2023-11-25T08:21:34.381Z,77.12
2023-11-25T08:24:02.893Z,77.04
2023-11-25T08:26:32.336Z,75.60
2023-11-25T08:29:05.343Z,74.86
2023-11-25T08:31:33.609Z,73.88
2023-11-25T08:34:06.435Z,74.06
2023-11-25T08:36:34.412Z,74.77
2023-11-25T08:39:04.136Z,75.86
2023-11-25T08:41:32.567Z,75.67
2023-11-25T08:44:01.620Z,75.99
2023-11-25T08:46:29.884Z,74.56
2023-11-25T08:48:57.897Z,75.16
2023-11-25T08:51:26.575Z,73.82
2023-11-25T08:53:56.550Z,72.74
2023-11-25T08:56:31.961Z,73.00
2023-11-25T08:59:06.734Z,71.92
2023-11-25T09:01:42.018Z,71.26
2023-11-25T09:04:10.238Z,71.66
2023-11-25T09:06:42.022Z,71.52
2023-11-25T09:09:10.125Z,70.25
2023-11-25T09:11:38.216Z,71.50
2023-11-25T09:14:18.264Z,71.56
2023-11-25T09:16:46.496Z,69.55
2023-11-25T09:19:15.539Z,71.92
2023-11-25T09:21:43.676Z,72.01
2023-11-25T09:24:13.881Z,71.71
2023-11-25T09:26:50.448Z,72.60
2023-11-25T09:29:18.304Z,73.32
2023-11-25T09:31:51.836Z,73.31
2023-11-25T09:34:26.885Z,73.97
2023-11-25T09:36:54.976Z,74.17
2023-11-25T09:39:23.018Z,74.82
2023-11-25T09:41:51.448Z,75.59
2023-11-25T09:44:20.772Z,76.06
2023-11-25T09:46:52.606Z,76.38
2023-11-25T09:49:20.956Z,76.65
2023-11-25T09:51:50.520Z,77.04
2023-11-25T09:54:24.512Z,77.18
2023-11-25T09:56:54.061Z,76.87
2023-11-25T09:59:22.155Z,77.30
2023-11-25T10:01:51.331Z,77.26
2023-11-25T10:04:19.775Z,78.01
2023-11-25T10:06:51.212Z,77.92
2023-11-25T10:09:19.213Z,78.47
2023-11-25T10:11:53.502Z,78.93
2023-11-25T10:14:21.496Z,78.80
2023-11-25T10:16:49.518Z,78.88
2023-11-25T10:19:25.215Z,79.37
2023-11-25T10:21:54.191Z,79.68
2023-11-25T10:24:24.175Z,79.95
2023-11-25T10:26:53.465Z,80.10
2023-11-25T10:29:22.056Z,80.28
2023-11-25T10:32:00.209Z,79.23
2023-11-25T10:34:28.434Z,78.98
2023-11-25T10:36:58.214Z,79.84
2023-11-25T10:39:26.836Z,80.44
2023-11-25T10:41:54.972Z,79.66
2023-11-25T10:44:23.081Z,79.27
2023-11-25T10:46:51.861Z,79.64
2023-11-25T10:49:21.841Z,78.91
2023-11-25T10:51:54.409Z,77.79
2023-11-25T10:54:29.371Z,77.59
2023-11-25T10:56:58.828Z,78.74
2023-11-25T10:59:29.102Z,77.10
2023-11-25T11:02:01.932Z,78.12
2023-11-25T11:04:39.858Z,76.74
2023-11-25T11:07:11.681Z,77.96
2023-11-25T11:09:40.877Z,77.39
2023-11-25T11:12:16.722Z,76.94
2023-11-25T11:14:57.352Z,77.31
2023-11-25T11:18:09.313Z,78.03
2023-11-25T11:20:46.678Z,77.26
2023-11-25T11:23:19.280Z,78.18
2023-11-25T11:26:19.285Z,78.42
2023-11-25T11:29:12.828Z,76.78
2023-11-25T11:32:02.695Z,76.92
2023-11-25T11:34:35.423Z,77.62
2023-11-25T11:37:04.828Z,78.33
2023-11-25T11:39:40.041Z,78.36
2023-11-25T11:42:29.986Z,78.62
2023-11-25T11:45:20.313Z,78.19
2023-11-25T11:47:58.764Z,78.30
2023-11-25T11:50:34.460Z,79.48
2023-11-25T11:53:02.556Z,79.08
2023-11-25T11:55:41.570Z,79.81
2023-11-25T11:58:12.178Z,79.02
2023-11-25T12:01:07.533Z,77.81
2023-11-25T12:03:38.875Z,77.79
2023-11-25T12:06:11.245Z,77.47
2023-11-25T12:08:39.370Z,77.59
2023-11-25T12:11:07.908Z,78.12
2023-11-25T12:13:40.948Z,77.13
2023-11-25T12:16:10.832Z,77.72
2023-11-25T12:18:39.158Z,77.50
2023-11-25T12:21:08.038Z,76.40
2023-11-25T12:23:45.409Z,76.98
2023-11-25T12:26:25.153Z,76.57
2023-11-25T12:28:53.223Z,75.80
2023-11-25T12:31:21.545Z,75.01
2023-11-25T12:33:50.732Z,75.94
2023-11-25T12:36:18.957Z,75.79
2023-11-25T12:38:46.930Z,73.73
2023-11-25T12:41:17.611Z,72.27
2023-11-25T12:44:08.789Z,73.51
2023-11-25T12:46:36.921Z,71.47
2023-11-25T12:49:24.713Z,72.06
2023-11-25T12:51:53.871Z,72.57
2023-11-25T12:54:22.470Z,71.89
2023-11-25T12:56:54.809Z,72.26
2023-11-25T12:59:29.387Z,71.29
2023-11-25T13:02:07.269Z,70.53
2023-11-25T13:04:36.162Z,70.30
2023-11-25T13:07:05.174Z,69.30
2023-11-25T13:09:33.863Z,69.56
2023-11-25T13:12:01.812Z,66.89
2023-11-25T13:14:29.803Z,67.79
2023-11-25T13:16:57.952Z,68.41
2023-11-25T13:19:26.006Z,69.41
2023-11-25T13:21:53.908Z,69.54
2023-11-25T13:24:24.769Z,68.97
2023-11-25T13:26:52.931Z,69.87
2023-11-25T13:29:21.660Z,69.27
2023-11-25T13:31:49.645Z,68.33
2023-11-25T13:34:17.686Z,68.86
2023-11-25T13:36:46.687Z,68.91
2023-11-25T13:39:21.472Z,69.12
2023-11-25T13:41:49.642Z,69.77
2023-11-25T13:44:17.666Z,69.57
2023-11-25T13:46:45.679Z,70.03
2023-11-25T13:49:14.952Z,71.14
2023-11-25T13:51:42.990Z,71.36
2023-11-25T13:54:12.133Z,72.18
2023-11-25T13:56:40.026Z,72.44
2023-11-25T13:59:07.998Z,72.43
2023-11-25T14:01:36.212Z,72.53
2023-11-25T14:04:05.491Z,72.86
2023-11-25T14:06:33.488Z,73.19
2023-11-25T14:09:01.891Z,73.27
2023-11-25T14:11:30.527Z,73.94
2023-11-25T14:13:58.780Z,73.79
2023-11-25T14:16:26.731Z,74.08
2023-11-25T14:18:54.870Z,74.63
2023-11-25T14:21:22.764Z,75.21
2023-11-25T14:23:51.476Z,75.52
2023-11-25T14:26:19.449Z,75.94
2023-11-25T14:28:48.459Z,77.01
2023-11-25T14:31:16.361Z,77.02
2023-11-25T14:33:44.503Z,77.09
2023-11-25T14:36:14.555Z,77.29
2023-11-25T14:38:43.864Z,77.93
2023-11-25T14:41:11.859Z,78.20
2023-11-25T14:43:41.034Z,78.66
2023-11-25T14:46:09.123Z,78.83
2023-11-25T14:48:37.243Z,80.00
2023-11-25T14:51:05.376Z,79.79
2023-11-25T14:53:43.815Z,80.27
2023-11-25T14:56:12.248Z,81.18
2023-11-25T14:58:40.322Z,81.80
2023-11-25T15:01:08.392Z,82.27
2023-11-25T15:03:44.597Z,82.95
2023-11-25T15:06:12.602Z,83.63
2023-11-25T15:08:40.590Z,83.90
2023-11-25T15:11:09.254Z,84.11
2023-11-25T15:13:37.248Z,84.32
2023-11-25T15:16:05.620Z,84.39
2023-11-25T15:18:34.259Z,84.70
2023-11-25T15:21:04.626Z,84.80
2023-11-25T15:23:36.788Z,85.00
2023-11-25T15:26:06.560Z,84.77
2023-11-25T15:28:34.494Z,85.03
2023-11-25T15:31:05.437Z,84.92
2023-11-25T15:33:33.411Z,85.22
2023-11-25T15:36:04.523Z,85.26
2023-11-25T15:38:38.692Z,85.10
2023-11-25T15:41:13.561Z,85.12
2023-11-25T15:43:45.918Z,85.32
2023-11-25T15:46:16.654Z,85.30
2023-11-25T15:48:46.507Z,85.15
2023-11-25T15:51:14.487Z,85.04
2023-11-25T15:53:43.155Z,85.12
2023-11-25T15:56:14.148Z,84.73
2023-11-25T15:58:42.211Z,84.36
2023-11-25T16:01:18.990Z,84.59
2023-11-25T16:03:46.991Z,84.20
2023-11-25T16:06:17.900Z,84.46
2023-11-25T16:08:45.884Z,84.61
2023-11-25T16:11:16.866Z,84.58
2023-11-25T16:13:45.913Z,84.97
2023-11-25T16:16:14.010Z,84.96
2023-11-25T16:18:42.032Z,85.26
2023-11-25T16:21:10.016Z,85.06
2023-11-25T16:23:40.303Z,85.63
2023-11-25T16:26:15.390Z,85.72
2023-11-25T16:28:43.364Z,85.88
2023-11-25T16:31:14.407Z,86.12
2023-11-25T16:33:42.371Z,86.34
2023-11-25T16:36:15.385Z,86.79
2023-11-25T16:38:51.764Z,86.79
2023-11-25T16:41:25.721Z,86.40
2023-11-25T16:43:57.263Z,86.60
2023-11-25T16:46:28.327Z,86.74
2023-11-25T16:49:08.032Z,86.70
2023-11-25T16:51:37.211Z,86.80
2023-11-25T16:54:09.470Z,86.50
2023-11-25T16:56:37.508Z,86.23
2023-11-25T16:59:07.493Z,85.66
2023-11-25T17:01:35.772Z,85.73
2023-11-25T17:04:04.431Z,85.69
2023-11-25T17:06:39.242Z,85.10
2023-11-25T17:09:09.853Z,85.02
2023-11-25T17:11:37.784Z,85.21
2023-11-25T17:14:06.163Z,84.79
2023-11-25T17:16:34.347Z,85.04
2023-11-25T17:19:02.359Z,85.19
2023-11-25T17:21:30.401Z,84.90
2023-11-25T17:24:02.615Z,85.05
2023-11-25T17:26:30.513Z,85.33
2023-11-25T17:29:00.971Z,85.71
2023-11-25T17:31:31.512Z,86.25
2023-11-25T17:34:00.607Z,86.78
2023-11-25T17:36:35.366Z,86.89
2023-11-25T17:39:03.375Z,87.05
2023-11-25T17:41:33.581Z,87.83
2023-11-25T17:44:01.646Z,88.14
2023-11-25T17:46:32.257Z,88.85
2023-11-25T17:49:00.223Z,89.19
2023-11-25T17:51:30.432Z,88.86
2023-11-25T17:54:02.683Z,89.42
2023-11-25T17:56:36.528Z,89.95
2023-11-25T17:59:07.140Z,90.96
2023-11-25T18:01:35.380Z,91.60
2023-11-25T18:04:03.673Z,92.60
2023-11-25T18:06:31.659Z,93.26
2023-11-25T18:09:00.027Z,93.39
2023-11-25T18:11:28.276Z,93.58
2023-11-25T18:13:56.347Z,94.65
2023-11-25T18:16:24.502Z,95.53
2023-11-25T18:18:53.664Z,95.02
2023-11-25T18:21:21.622Z,95.40
2023-11-25T18:23:49.602Z,96.31
2023-11-25T18:26:18.587Z,96.50
2023-11-25T18:28:46.545Z,96.73
2023-11-25T18:31:19.221Z,96.30
2023-11-25T18:33:47.144Z,96.89
2023-11-25T18:36:18.724Z,96.81
2023-11-25T18:38:46.783Z,97.58
2023-11-25T18:41:15.198Z,97.39
2023-11-25T18:43:43.224Z,97.52
2023-11-25T18:46:13.139Z,97.26
2023-11-25T18:48:44.451Z,97.29
2023-11-25T18:51:12.430Z,97.18
2023-11-25T18:53:43.046Z,97.32
2023-11-25T18:56:11.164Z,97.73
2023-11-25T18:58:42.363Z,97.70
2023-11-25T19:01:12.041Z,97.18
2023-11-25T19:03:39.982Z,97.65
2023-11-25T19:06:08.420Z,97.49
2023-11-25T19:08:36.332Z,97.75
2023-11-25T19:11:04.372Z,97.90
2023-11-25T19:13:32.359Z,97.48
2023-11-25T19:16:00.331Z,97.75
2023-11-25T19:18:28.344Z,97.43
2023-11-25T19:20:56.682Z,97.86
2023-11-25T19:23:24.598Z,98.12
2023-11-25T19:25:52.609Z,97.75
2023-11-25T19:28:23.025Z,97.84
2023-11-25T19:30:52.674Z,97.82
2023-11-25T19:33:20.651Z,97.99
2023-11-25T19:35:48.767Z,97.69
2023-11-25T19:38:17.571Z,97.65
2023-11-25T19:40:48.844Z,97.65
2023-11-25T19:43:18.620Z,97.66
2023-11-25T19:45:46.626Z,97.80
2023-11-25T19:48:15.270Z,97.61
2023-11-25T19:50:43.374Z,97.45
2023-11-25T19:53:20.506Z,97.62
2023-11-25T19:55:48.961Z,97.46
2023-11-25T19:58:17.392Z,97.37
2023-11-25T20:00:53.336Z,97.35
2023-11-25T20:03:26.447Z,97.45
2023-11-25T20:05:55.750Z,97.21
2023-11-25T20:08:23.916Z,97.20
2023-11-25T20:10:52.043Z,97.40
2023-11-25T20:13:20.645Z,97.34
2023-11-25T20:15:48.900Z,97.28
2023-11-25T20:18:17.291Z,97.02
2023-11-25T20:20:45.457Z,97.01
2023-11-25T20:23:16.253Z,97.02
2023-11-25T20:25:46.111Z,96.81
2023-11-25T20:28:14.504Z,96.75
2023-11-25T20:30:43.490Z,96.68
2023-11-25T20:33:12.558Z,96.85
2023-11-25T20:35:40.513Z,96.85
2023-11-25T20:38:08.609Z,96.90
2023-11-25T20:40:38.944Z,96.82
2023-11-25T20:43:07.379Z,97.04
2023-11-25T20:45:38.358Z,97.66
2023-11-25T20:48:07.031Z,97.51
2023-11-25T20:50:36.354Z,97.56
2023-11-25T20:53:04.744Z,97.59
2023-11-25T20:55:32.836Z,97.53
2023-11-25T20:58:05.058Z,97.56
2023-11-25T21:00:35.745Z,97.65
2023-11-25T21:03:04.382Z,97.77
2023-11-25T21:05:33.780Z,97.88
2023-11-25T21:08:01.907Z,97.81
2023-11-25T21:10:30.200Z,97.75
2023-11-25T21:12:59.548Z,98.00
2023-11-25T21:15:27.502Z,97.85
2023-11-25T21:17:59.465Z,98.39
2023-11-25T21:20:27.459Z,98.69
2023-11-25T21:22:55.514Z,98.64
2023-11-25T21:25:24.131Z,98.88
2023-11-25T21:27:52.317Z,98.76
2023-11-25T21:30:20.296Z,98.59
2023-11-25T21:32:48.447Z,98.83
2023-11-25T21:35:16.733Z,99.04
2023-11-25T21:37:45.377Z,98.73
2023-11-25T21:40:20.662Z,98.88
2023-11-25T21:42:51.910Z,98.94
2023-11-25T21:45:20.745Z,98.90
2023-11-25T21:47:51.203Z,98.89
2023-11-25T21:50:20.203Z,98.92
2023-11-25T21:52:48.202Z,98.92
2023-11-25T21:55:16.919Z,98.81
2023-11-25T21:57:45.562Z,98.70
2023-11-25T22:00:18.036Z,99.01
2023-11-25T22:02:46.418Z,98.86
2023-11-25T22:05:15.822Z,99.03
2023-11-25T22:07:44.058Z,98.99
2023-11-25T22:10:24.306Z,99.04
2023-11-25T22:12:56.087Z,99.00
2023-11-25T22:15:24.731Z,98.87
2023-11-25T22:17:53.184Z,98.85
2023-11-25T22:20:21.244Z,98.84
2023-11-25T22:22:49.181Z,98.75
2023-11-25T22:25:26.695Z,98.74
2023-11-25T22:27:56.247Z,98.74
2023-11-25T22:30:24.296Z,98.60
2023-11-25T22:32:52.417Z,98.95
2023-11-25T22:35:21.211Z,98.52
2023-11-25T22:37:49.833Z,98.67
2023-11-25T22:40:18.268Z,98.65
2023-11-25T22:42:46.463Z,98.92
2023-11-25T22:45:14.568Z,98.82
2023-11-25T22:47:42.478Z,99.33
2023-11-25T22:50:10.975Z,99.47
2023-11-25T22:52:39.062Z,99.21
2023-11-25T22:55:07.190Z,99.46
2023-11-25T22:57:35.200Z,99.61
2023-11-25T23:00:03.675Z,99.56
2023-11-25T23:02:31.782Z,99.53
2023-11-25T23:05:01.504Z,99.42
2023-11-25T23:07:29.397Z,99.69
2023-11-25T23:10:08.460Z,99.53
2023-11-25T23:12:36.604Z,99.38
2023-11-25T23:15:05.752Z,99.59
2023-11-25T23:17:33.929Z,99.72
2023-11-25T23:20:01.822Z,99.54
2023-11-25T23:22:29.748Z,99.51
2023-11-25T23:24:57.784Z,99.53
2023-11-25T23:27:25.775Z,99.45
2023-11-25T23:29:53.782Z,99.58
2023-11-25T23:32:21.748Z,99.55
2023-11-25T23:34:49.736Z,99.47
2023-11-25T23:37:18.582Z,99.53
2023-11-25T23:39:47.090Z,99.37
2023-11-25T23:42:15.262Z,99.71
2023-11-25T23:44:43.318Z,100.00
2023-11-25T23:47:11.350Z,100.00
2023-11-25T23:49:39.391Z,100.00
2023-11-25T23:52:08.579Z,100.00
2023-11-25T23:54:39.821Z,100.00
2023-11-25T23:57:07.800Z,100.00
2023-11-25T23:59:36.285Z,100.00
